»·PEaware :: AAY1672 KMFR-KMRY

AAY1672 :: KMFR-KMRY

FLIGHT INFORMATION

Flight Status: Arrived
Operator:
Allegiant Air
More flights by this operator :: More flights under this callsign
Pilot: Chuck O. (4337)
Aircraft: AIRBUS A320
(A320)
More flights by this aircraft type
Origin: KMFR Rogue Valley Intl-Medford
United States
Destination: KMRY Monterey Peninsula
United States
More flights between these airports :: More routes between these airports
Route: JKSN1 OED J501 PYE OAK SNS
File this flight plan on PilotEdge
Remarks:
Altitude:
(Current/Filed)
37,000ft
Speed:
(Current/Filed)
456kts
Departed: 08-Aug-18 07:36 AM
Arrived: 08-Aug-18 08:53 AM
Distance/Time
Traveled:
350nm/1:17
Distance/Time
To Go:
Arrived

Flight Plot

Page will automatically refresh every two minutes.

Flight plan parsing failed; only flown route is shown


Map Options




Map Legend


Flown Route
Filed Route
Departure Airport
Arrival Airport
Navaid (VOR, NDB)
Fix

Horizontal Profiles

Position Reports

Time Latitude Longitude Heading Altitude Ground
Speed
08-Aug-18 07:17 42.368147 -122.873031 249 1349ft 0kts
08-Aug-18 07:18 42.368147 -122.873031 249 1349ft 0kts
08-Aug-18 07:19 42.368147 -122.873031 249 1349ft 0kts
08-Aug-18 07:20 42.368147 -122.873031 249 1349ft 0kts
08-Aug-18 07:21 42.368147 -122.873031 249 1349ft 0kts
08-Aug-18 07:22 42.368253 -122.872650 249 1349ft 2kts
08-Aug-18 07:23 42.368403 -122.872115 248 1349ft 0kts
08-Aug-18 07:24 42.368403 -122.872116 248 1349ft 0kts
08-Aug-18 07:25 42.368403 -122.872116 248 1349ft 0kts
08-Aug-18 07:26 42.368403 -122.872116 248 1349ft 0kts
08-Aug-18 07:27 42.368403 -122.872117 248 1349ft 0kts
08-Aug-18 07:28 42.368402 -122.872117 248 1349ft 0kts
08-Aug-18 07:29 42.368465 -122.872463 330 1349ft 0kts
08-Aug-18 07:30 42.368680 -122.872417 47 1349ft 0kts
08-Aug-18 07:31 42.372294 -122.873353 337 1349ft 16kts
08-Aug-18 07:32 42.376912 -122.875797 338 1349ft 19kts
08-Aug-18 07:33 42.382169 -122.878552 337 1349ft 21kts
08-Aug-18 07:34 42.385172 -122.880142 341 1349ft 7kts
08-Aug-18 07:35 42.385635 -122.880080 51 1349ft 0kts
08-Aug-18 07:36 42.385638 -122.880075 51 1349ft 0kts
08-Aug-18 07:37 42.383783 -122.877815 159 1349ft 65kts
08-Aug-18 07:38 42.341219 -122.864758 216 3037ft 194kts
08-Aug-18 07:39 42.375633 -122.938552 344 4469ft 315kts
08-Aug-18 07:40 42.450043 -122.924265 41 9432ft 260kts
08-Aug-18 07:41 42.455422 -122.829787 133 10836ft 308kts
08-Aug-18 07:42 42.375411 -122.837448 224 12030ft 343kts
08-Aug-18 07:43 42.302342 -122.913919 183 11991ft 340kts
08-Aug-18 07:44 42.207517 -122.909343 180 12017ft 341kts
08-Aug-18 07:45 42.112221 -122.908999 180 13220ft 346kts
08-Aug-18 07:46 42.014199 -122.907897 180 15544ft 359kts
08-Aug-18 07:47 41.912766 -122.906794 180 17643ft 371kts
08-Aug-18 07:48 41.807669 -122.905694 180 19546ft 383kts
08-Aug-18 07:49 41.699279 -122.904534 181 21287ft 394kts
08-Aug-18 07:50 41.587854 -122.903404 181 22844ft 405kts
08-Aug-18 07:51 41.473671 -122.902094 181 24285ft 415kts
08-Aug-18 07:52 41.366354 -122.900976 181 25568ft 423kts
08-Aug-18 07:53 41.247852 -122.899658 181 26879ft 431kts
08-Aug-18 07:54 41.126716 -122.898469 181 28111ft 439kts
08-Aug-18 07:55 41.003563 -122.897137 181 29311ft 446kts
08-Aug-18 07:56 40.878112 -122.895938 181 30409ft 454kts
08-Aug-18 07:57 40.751028 -122.894538 181 31666ft 455kts
08-Aug-18 07:58 40.625424 -122.893240 182 33045ft 452kts
08-Aug-18 07:59 40.499935 -122.891923 182 34281ft 449kts
08-Aug-18 08:00 40.374907 -122.890620 182 35333ft 447kts
08-Aug-18 08:01 40.250749 -122.889387 182 36226ft 446kts
08-Aug-18 08:02 40.126902 -122.888068 182 37002ft 444kts
08-Aug-18 08:03 40.003154 -122.886879 182 37024ft 444kts
08-Aug-18 08:04 39.879233 -122.885543 181 37017ft 446kts
08-Aug-18 08:05 39.754833 -122.884317 181 37019ft 446kts
08-Aug-18 08:06 39.631069 -122.882985 181 37003ft 446kts
08-Aug-18 08:07 39.506655 -122.881770 181 37027ft 446kts
08-Aug-18 08:08 39.382807 -122.880562 181 37018ft 446kts
08-Aug-18 08:09 39.258386 -122.879272 181 37011ft 447kts
08-Aug-18 08:10 39.134007 -122.878006 181 37054ft 446kts
08-Aug-18 08:11 39.009807 -122.876814 181 37033ft 447kts
08-Aug-18 08:12 38.885322 -122.875528 181 37039ft 447kts
08-Aug-18 08:13 38.760559 -122.874319 181 37045ft 448kts
08-Aug-18 08:14 38.635909 -122.873087 180 37060ft 448kts
08-Aug-18 08:15 38.511087 -122.871908 180 37057ft 448kts
08-Aug-18 08:16 38.386469 -122.870702 180 37066ft 449kts
08-Aug-18 08:17 38.272105 -122.869585 180 37070ft 449kts
08-Aug-18 08:18 38.184813 -122.868767 180 37072ft 449kts
08-Aug-18 08:19 38.065775 -122.830251 142 37029ft 454kts
08-Aug-18 08:20 37.989832 -122.702253 123 35754ft 460kts
08-Aug-18 08:21 37.916797 -122.570043 125 33077ft 461kts
08-Aug-18 08:22 37.844843 -122.438369 124 30508ft 456kts
08-Aug-18 08:23 37.773676 -122.309881 124 28030ft 446kts
08-Aug-18 08:24 37.690267 -122.200428 153 25402ft 435kts
08-Aug-18 08:25 37.585468 -122.141610 155 22470ft 426kts
08-Aug-18 08:26 37.484217 -122.080428 155 22024ft 405kts
08-Aug-18 08:27 37.397185 -122.029672 155 22042ft 412kts
08-Aug-18 08:28 37.276155 -121.958593 155 21937ft 404kts
08-Aug-18 08:29 37.181132 -121.903005 155 21129ft 355kts
08-Aug-18 08:30 37.107240 -121.860053 156 19541ft 345kts
08-Aug-18 08:31 37.021515 -121.810042 156 17699ft 336kts
08-Aug-18 08:32 36.938195 -121.761756 156 16002ft 325kts
08-Aug-18 08:33 36.870350 -121.722470 156 14645ft 318kts
08-Aug-18 08:34 36.778051 -121.669335 156 12735ft 308kts
08-Aug-18 08:35 36.713996 -121.632314 156 11390ft 300kts
08-Aug-18 08:36 36.644136 -121.592152 156 10663ft 253kts
08-Aug-18 08:37 36.580127 -121.568755 200 9344ft 232kts
08-Aug-18 08:38 36.553321 -121.630019 299 7354ft 255kts
08-Aug-18 08:39 36.602450 -121.689254 323 6999ft 229kts
08-Aug-18 08:40 36.650187 -121.732556 324 7027ft 205kts
08-Aug-18 08:41 36.700765 -121.731097 32 7018ft 206kts
08-Aug-18 08:42 36.747371 -121.691983 33 6999ft 197kts
08-Aug-18 08:43 36.792882 -121.653925 33 6999ft 197kts
08-Aug-18 08:44 36.835310 -121.612024 71 6958ft 198kts
08-Aug-18 08:45 36.803265 -121.565709 154 6238ft 197kts
08-Aug-18 08:46 36.752404 -121.565705 201 5050ft 193kts
08-Aug-18 08:47 36.703873 -121.586211 199 4975ft 164kts
08-Aug-18 08:48 36.661330 -121.606213 220 4969ft 163kts
08-Aug-18 08:49 36.632031 -121.648844 230 3981ft 158kts
08-Aug-18 08:50 36.603881 -121.689029 231 3439ft 152kts
08-Aug-18 08:51 36.576329 -121.728418 230 2396ft 148kts
08-Aug-18 08:52 36.562097 -121.771977 288 1425ft 141kts
08-Aug-18 08:53 36.577549 -121.816363 292 627ft 134kts
08-Aug-18 08:54 36.588668 -121.849411 289 219ft 8kts
08-Aug-18 08:55 36.588896 -121.852459 290 219ft 3kts
08-Aug-18 08:56 36.589229 -121.853442 294 219ft 0kts
08-Aug-18 08:57 36.589180 -121.853635 85 219ft 12kts
08-Aug-18 08:58 36.589147 -121.853130 107 219ft 6kts
08-Aug-18 08:59 36.588091 -121.849857 104 219ft 5kts
08-Aug-18 09:00 36.587626 -121.849957 240 219ft 0kts
08-Aug-18 09:01 36.587626 -121.849957 240 219ft 0kts
08-Aug-18 09:02 36.587626 -121.849957 240 219ft 0kts
08-Aug-18 09:03 36.587626 -121.849957 240 219ft 0kts

Navigation Log

Ident Type
Flight plan parsing failed, navigation log unavailable